Time;durP1;ratioP1;P1;durP2;ratioP2;P2;SDS_P1;SDS_P2;PMS_P1;PMS_P2;Temp;Humidity;BMP_temperature;BMP_pressure;BME280_temperature;BME280_humidity;BME280_pressure;Samples;Min_cycle;Max_cycle;Signal;HPM_P1;HPM_P2
2023/02/26 00:00:38;;;;;;;4.77;2.87;;;0.20;60.00;;;;;;5006980;28;20753;-57
2023/02/26 00:03:04;;;;;;;4.07;2.67;;;0.20;60.20;;;;;;5010051;28;20277;-57
2023/02/26 00:05:30;;;;;;;5.03;3.50;;;0.20;60.20;;;;;;5008107;28;20183;-57
2023/02/26 00:07:56;;;;;;;3.57;3.23;;;0.20;60.00;;;;;;5010553;28;20190;-56
2023/02/26 00:10:21;;;;;;;6.23;2.90;;;0.20;59.40;;;;;;5008246;28;20175;-56
2023/02/26 00:12:47;;;;;;;4.53;2.90;;;0.20;59.20;;;;;;5009325;28;20917;-57
2023/02/26 00:15:14;;;;;;;5.00;2.70;;;0.20;59.30;;;;;;5008131;28;20242;-56
2023/02/26 00:18:03;;;;;;;2.77;2.53;;;0.20;59.30;;;;;;5009520;28;20175;-56
2023/02/26 00:20:28;;;;;;;4.87;3.10;;;0.20;59.30;;;;;;5008353;28;20992;-56
2023/02/26 00:22:54;;;;;;;2.67;2.47;;;0.20;59.50;;;;;;5005779;28;20445;-56
2023/02/26 00:25:20;;;;;;;5.20;3.20;;;0.20;59.40;;;;;;5005127;28;20186;-58
2023/02/26 00:27:46;;;;;;;3.63;3.30;;;0.20;59.60;;;;;;5009587;28;20185;-57
2023/02/26 00:30:11;;;;;;;3.33;3.00;;;0.20;58.80;;;;;;5008998;28;20179;-55
2023/02/26 00:32:38;;;;;;;4.03;3.17;;;0.20;58.20;;;;;;5002988;28;20209;-56
2023/02/26 00:35:11;;;;;;;3.43;2.40;;;0.20;58.10;;;;;;5000340;28;20175;-56
2023/02/26 00:37:55;;;;;;;3.20;2.93;;;0.20;58.40;;;;;;5002582;28;20484;-57
2023/02/26 00:40:44;;;;;;;4.23;3.50;;;0.20;58.40;;;;;;5007002;28;20523;-57
2023/02/26 00:43:13;;;;;;;3.47;3.00;;;0.20;58.40;;;;;;5006383;28;20449;-56
2023/02/26 00:45:44;;;;;;;4.80;3.23;;;0.10;58.50;;;;;;5007270;28;20508;-56
2023/02/26 00:48:18;;;;;;;4.27;2.70;;;0.10;58.50;;;;;;5009540;28;20508;-56
2023/02/26 00:51:12;;;;;;;5.70;3.57;;;0.10;58.90;;;;;;5004484;28;20524;-56
2023/02/26 00:53:48;;;;;;;6.03;2.70;;;0.10;59.30;;;;;;5005040;28;20461;-56
2023/02/26 00:56:14;;;;;;;3.20;2.90;;;0.10;59.70;;;;;;5008018;28;20432;-56
2023/02/26 00:58:39;;;;;;;4.40;2.97;;;0.10;59.70;;;;;;5009009;28;20434;-56
2023/02/26 01:01:05;;;;;;;3.23;2.93;;;0.10;59.60;;;;;;4999432;28;20261;-56
2023/02/26 01:03:31;;;;;;;5.67;3.10;;;0.10;59.70;;;;;;5002887;28;20203;-55
2023/02/26 01:05:57;;;;;;;5.47;3.40;;;0.10;59.80;;;;;;5006294;28;20260;-57
2023/02/26 01:08:41;;;;;;;3.33;3.03;;;0.00;59.80;;;;;;5010115;28;20512;-57
2023/02/26 01:11:07;;;;;;;5.37;3.30;;;0.00;60.00;;;;;;5000946;28;20593;-56
2023/02/26 01:13:32;;;;;;;6.27;2.97;;;0.00;60.50;;;;;;5009722;28;20556;-58
2023/02/26 01:16:06;;;;;;;3.00;2.70;;;-0.10;60.60;;;;;;5008294;28;20552;-57
2023/02/26 01:18:42;;;;;;;3.23;2.20;;;-0.10;59.80;;;;;;5008357;28;20174;-54
2023/02/26 01:21:16;;;;;;;2.97;2.67;;;-0.20;58.20;;;;;;5007465;28;20425;-58
2023/02/26 01:23:46;;;;;;;3.27;2.73;;;-0.30;57.60;;;;;;5001712;28;20477;-56
2023/02/26 01:26:21;;;;;;;2.60;2.40;;;-0.30;57.70;;;;;;5006241;28;20506;-56
2023/02/26 01:28:47;;;;;;;2.67;2.47;;;-0.40;57.70;;;;;;5004856;28;20833;-56
2023/02/26 01:31:31;;;;;;;4.43;2.70;;;-0.40;57.90;;;;;;5002644;28;20435;-57
2023/02/26 01:34:17;;;;;;;6.07;2.70;;;-0.40;58.00;;;;;;5021354;28;20473;-55
2023/02/26 01:36:55;;;;;;;5.70;2.67;;;-0.40;57.60;;;;;;5001925;28;20533;-56
2023/02/26 01:39:28;;;;;;;3.93;2.80;;;-0.40;57.50;;;;;;5008160;28;20496;-55
2023/02/26 01:41:57;;;;;;;3.43;2.70;;;-0.50;57.40;;;;;;5002206;28;20969;-58
2023/02/26 01:44:31;;;;;;;3.63;2.40;;;-0.50;57.60;;;;;;5015774;28;20446;-57
2023/02/26 01:47:22;;;;;;;2.70;2.40;;;-0.40;57.70;;;;;;5005110;28;20942;-57
2023/02/26 01:49:48;;;;;;;2.57;2.00;;;-0.40;57.40;;;;;;5005933;28;20429;-55
2023/02/26 01:52:47;;;;;;;6.20;2.83;;;-0.40;57.00;;;;;;5004420;28;20433;-56
2023/02/26 01:55:20;;;;;;;2.70;2.20;;;-0.40;56.50;;;;;;5015406;28;20483;-56
2023/02/26 01:57:48;;;;;;;2.87;2.50;;;-0.50;56.60;;;;;;4999988;28;20433;-56
2023/02/26 02:00:15;;;;;;;2.50;2.30;;;-0.50;56.70;;;;;;5003254;28;20466;-57
2023/02/26 02:02:41;;;;;;;3.83;2.43;;;-0.50;56.90;;;;;;4998531;28;20533;-57
2023/02/26 02:05:14;;;;;;;6.80;2.07;;;-0.50;56.50;;;;;;4997710;28;21033;-55
2023/02/26 02:07:39;;;;;;;2.73;2.53;;;-0.50;56.80;;;;;;4998926;28;20182;-56
2023/02/26 02:10:06;;;;;;;3.43;2.37;;;-0.50;56.80;;;;;;5005585;28;20448;-56
2023/02/26 02:12:46;;;;;;;2.57;2.33;;;-0.50;56.60;;;;;;5004436;28;20248;-58
2023/02/26 02:15:26;;;;;;;2.37;2.17;;;-0.50;56.30;;;;;;5002320;28;20429;-56
2023/02/26 02:18:16;;;;;;;2.70;2.17;;;-0.50;56.20;;;;;;5000653;28;21150;-59
2023/02/26 02:20:50;;;;;;;2.70;1.90;;;-0.50;56.10;;;;;;5002142;28;20490;-56
2023/02/26 02:23:31;;;;;;;5.33;2.53;;;-0.60;56.00;;;;;;5003077;28;20537;-56
2023/02/26 02:26:31;;;;;;;2.67;2.47;;;-0.60;56.10;;;;;;4998964;28;20519;-56
2023/02/26 02:29:18;;;;;;;3.70;1.90;;;-0.60;55.80;;;;;;5003488;28;21115;-57
2023/02/26 02:32:00;;;;;;;6.20;2.37;;;-0.60;56.30;;;;;;5002108;28;20433;-56
2023/02/26 02:34:50;;;;;;;3.83;2.10;;;-0.70;56.50;;;;;;4998383;28;20448;-56
2023/02/26 02:37:26;;;;;;;2.37;2.17;;;-0.70;56.90;;;;;;4992612;28;20801;-57
2023/02/26 02:40:00;;;;;;;3.60;2.40;;;-0.70;57.00;;;;;;4989719;28;21138;-57
2023/02/26 02:42:43;;;;;;;2.87;2.30;;;-0.70;57.20;;;;;;4987176;28;20437;-57
2023/02/26 02:45:27;;;;;;;2.73;2.20;;;-0.70;57.30;;;;;;5004465;28;20429;-56
2023/02/26 02:48:00;;;;;;;4.17;2.50;;;-0.70;57.30;;;;;;4997589;28;20425;-57
2023/02/26 02:50:34;;;;;;;2.30;2.10;;;-0.70;57.40;;;;;;4984179;28;20429;-56
2023/02/26 02:53:25;;;;;;;2.50;2.30;;;-0.70;57.60;;;;;;4984205;28;20539;-57
2023/02/26 02:56:00;;;;;;;7.63;2.70;;;-0.60;57.60;;;;;;4985387;28;20990;-56
2023/02/26 02:58:31;;;;;;;2.93;2.50;;;-0.60;57.30;;;;;;4993613;28;20434;-56
2023/02/26 03:01:01;;;;;;;4.10;2.30;;;-0.60;57.20;;;;;;4990262;28;20607;-57
2023/02/26 03:03:49;;;;;;;5.23;2.93;;;-0.60;57.30;;;;;;4987933;28;21223;-57
2023/02/26 03:06:16;;;;;;;4.13;2.40;;;-0.60;57.30;;;;;;4998551;28;20433;-56
2023/02/26 03:08:43;;;;;;;3.17;2.23;;;-0.60;57.00;;;;;;5006401;28;20416;-57
2023/02/26 03:11:10;;;;;;;4.40;2.40;;;-0.60;56.90;;;;;;4999401;28;20422;-56
2023/02/26 03:13:38;;;;;;;2.07;1.97;;;-0.60;57.20;;;;;;5004393;28;20548;-58
2023/02/26 03:16:28;;;;;;;2.60;2.40;;;-0.60;57.30;;;;;;5003088;28;20442;-57
2023/02/26 03:19:13;;;;;;;2.67;2.47;;;-0.60;57.20;;;;;;5005834;28;20426;-57
2023/02/26 03:21:46;;;;;;;2.70;2.50;;;-0.60;57.00;;;;;;5004761;28;20433;-57
2023/02/26 03:24:25;;;;;;;2.60;2.40;;;-0.60;56.80;;;;;;5004982;28;20497;-55
2023/02/26 03:27:06;;;;;;;3.07;2.57;;;-0.70;56.90;;;;;;5003432;28;20439;-56
2023/02/26 03:29:54;;;;;;;3.43;2.20;;;-0.70;56.90;;;;;;5010331;28;20423;-56
2023/02/26 03:32:35;;;;;;;3.67;2.20;;;-0.70;57.20;;;;;;5003864;28;20471;-57
2023/02/26 03:35:05;;;;;;;6.50;2.30;;;-0.70;57.20;;;;;;5019482;28;20453;-56
2023/02/26 03:37:51;;;;;;;4.20;2.70;;;-0.80;57.20;;;;;;5005268;28;20583;-56
2023/02/26 03:40:20;;;;;;;2.43;2.27;;;-0.80;57.50;;;;;;5002084;28;20460;-57
2023/02/26 03:43:07;;;;;;;2.57;2.37;;;-0.80;57.60;;;;;;5019746;28;20430;-57
2023/02/26 03:45:36;;;;;;;3.93;2.40;;;-0.70;57.80;;;;;;5008719;28;20486;-57
2023/02/26 03:48:05;;;;;;;3.10;2.30;;;-0.70;57.70;;;;;;5001938;28;20429;-56
2023/02/26 03:50:42;;;;;;;2.43;2.23;;;-0.70;57.60;;;;;;5006740;28;20448;-56
2023/02/26 03:53:13;;;;;;;8.43;2.63;;;-0.70;57.70;;;;;;5011916;28;20969;-56
2023/02/26 03:55:47;;;;;;;3.13;2.37;;;-0.70;57.70;;;;;;5004598;28;20433;-57
2023/02/26 03:58:13;;;;;;;5.53;2.37;;;-0.70;57.80;;;;;;5007447;28;20794;-57
2023/02/26 04:00:42;;;;;;;4.00;2.30;;;-0.70;57.90;;;;;;5008170;28;20472;-57
2023/02/26 04:03:16;;;;;;;3.83;2.40;;;-0.70;58.20;;;;;;5011258;28;20668;-57
2023/02/26 04:05:47;;;;;;;2.57;2.37;;;-0.80;58.70;;;;;;5010692;28;20425;-57
2023/02/26 04:08:13;;;;;;;2.20;2.00;;;-0.80;58.50;;;;;;5013044;28;20902;-58
2023/02/26 04:10:43;;;;;;;3.07;2.43;;;-0.80;58.80;;;;;;5004841;28;20635;-57
2023/02/26 04:13:09;;;;;;;4.77;2.67;;;-0.80;58.90;;;;;;5022403;28;20207;-57
2023/02/26 04:15:35;;;;;;;3.40;3.07;;;-0.80;58.50;;;;;;5007603;28;20445;-62
2023/02/26 04:18:00;;;;;;;3.27;2.93;;;-0.80;58.60;;;;;;5011229;28;20580;-56
2023/02/26 04:20:26;;;;;;;4.23;2.97;;;-0.80;58.40;;;;;;5007391;28;20210;-56
2023/02/26 04:22:52;;;;;;;3.40;2.50;;;-0.90;58.30;;;;;;5006375;28;20221;-57
2023/02/26 04:25:17;;;;;;;3.80;3.33;;;-0.90;58.30;;;;;;5004816;28;20171;-58
2023/02/26 04:27:43;;;;;;;4.97;2.60;;;-1.00;58.00;;;;;;5009256;28;20178;-56
2023/02/26 04:30:09;;;;;;;4.87;2.97;;;-1.00;57.80;;;;;;5003887;28;20226;-56
2023/02/26 04:32:35;;;;;;;3.30;2.73;;;-1.10;57.80;;;;;;5009383;28;20293;-57
2023/02/26 04:35:00;;;;;;;3.87;3.30;;;-1.10;57.80;;;;;;5007257;28;21206;-57
2023/02/26 04:37:26;;;;;;;3.23;2.80;;;-1.20;57.50;;;;;;5009901;28;20178;-57
2023/02/26 04:39:52;;;;;;;4.13;3.00;;;-1.20;57.40;;;;;;5007890;28;20321;-56
2023/02/26 04:42:17;;;;;;;2.93;2.73;;;-1.20;57.50;;;;;;5009957;28;20197;-56
2023/02/26 04:44:43;;;;;;;3.37;3.00;;;-1.20;57.80;;;;;;5010856;28;20635;-56
2023/02/26 04:47:08;;;;;;;2.90;2.60;;;-1.20;57.90;;;;;;5010755;28;20188;-58
2023/02/26 04:49:34;;;;;;;3.00;2.70;;;-1.20;58.00;;;;;;5007315;28;20197;-56
2023/02/26 04:52:00;;;;;;;4.23;3.03;;;-1.20;58.30;;;;;;5006401;28;20174;-56
2023/02/26 04:54:26;;;;;;;13.17;3.30;;;-1.20;58.60;;;;;;5007727;28;20452;-57
2023/02/26 04:56:51;;;;;;;6.33;3.80;;;-1.20;59.10;;;;;;5018328;28;20267;-58
2023/02/26 04:59:17;;;;;;;3.00;2.70;;;-1.30;59.70;;;;;;5009156;28;20284;-59
2023/02/26 05:01:42;;;;;;;4.77;2.73;;;-1.30;60.40;;;;;;5009302;28;20170;-56
2023/02/26 05:04:08;;;;;;;2.77;2.57;;;-1.40;60.90;;;;;;5005763;28;20663;-58
2023/02/26 05:06:33;;;;;;;4.00;2.67;;;-1.40;60.80;;;;;;5005874;28;20179;-57
2023/02/26 05:08:59;;;;;;;4.33;3.00;;;-1.40;60.90;;;;;;5003942;28;20183;-57
2023/02/26 05:11:25;;;;;;;3.83;3.40;;;-1.40;61.20;;;;;;5009355;28;20583;-57
2023/02/26 05:13:50;;;;;;;8.73;2.70;;;-1.40;61.40;;;;;;5003449;28;20737;-57
2023/02/26 05:16:16;;;;;;;4.30;2.80;;;-1.40;61.50;;;;;;5005400;28;20178;-58
2023/02/26 05:18:42;;;;;;;3.00;2.63;;;-1.40;61.70;;;;;;5006805;28;20196;-57
2023/02/26 05:21:07;;;;;;;4.57;2.10;;;-1.40;61.10;;;;;;5008450;28;20297;-59
2023/02/26 05:23:33;;;;;;;4.33;2.67;;;-1.40;61.30;;;;;;5009455;28;20818;-57
2023/02/26 05:25:59;;;;;;;5.93;3.00;;;-1.40;61.30;;;;;;5005136;28;20175;-58
2023/02/26 05:28:26;;;;;;;4.63;2.27;;;-1.40;61.10;;;;;;5008538;28;20300;-58
2023/02/26 05:30:51;;;;;;;2.50;2.30;;;-1.50;60.90;;;;;;5007717;28;20544;-57
2023/02/26 05:33:17;;;;;;;2.47;2.27;;;-1.50;60.70;;;;;;5004194;28;20551;-57
2023/02/26 05:35:44;;;;;;;9.73;2.40;;;-1.50;60.70;;;;;;5006183;28;20190;-58
2023/02/26 05:38:10;;;;;;;4.40;2.50;;;-1.50;60.50;;;;;;5007034;28;20265;-58
2023/02/26 05:40:35;;;;;;;3.13;2.60;;;-1.50;60.50;;;;;;5002587;28;20560;-58
2023/02/26 05:43:01;;;;;;;5.87;2.50;;;-1.50;60.60;;;;;;5005328;28;20514;-58
2023/02/26 05:45:26;;;;;;;6.00;2.20;;;-1.50;60.60;;;;;;5007823;28;20174;-58
2023/02/26 05:47:52;;;;;;;2.77;2.30;;;-1.40;60.50;;;;;;5009438;28;20179;-58
2023/02/26 05:50:18;;;;;;;3.33;2.13;;;-1.40;60.00;;;;;;5005707;28;20205;-57
2023/02/26 05:52:43;;;;;;;2.77;2.57;;;-1.40;59.20;;;;;;5005957;28;20193;-58
2023/02/26 05:55:09;;;;;;;2.23;2.00;;;-1.40;58.90;;;;;;4989290;28;20186;-58
2023/02/26 05:57:35;;;;;;;3.83;2.00;;;-1.40;58.20;;;;;;4998312;28;20704;-60
2023/02/26 06:00:00;;;;;;;6.97;2.30;;;-1.40;57.90;;;;;;4998488;28;20527;-59
2023/02/26 06:02:26;;;;;;;5.70;2.03;;;-1.40;57.60;;;;;;4995761;28;20193;-58
2023/02/26 06:04:52;;;;;;;1.90;1.80;;;-1.40;57.40;;;;;;5012465;28;20201;-58
2023/02/26 06:07:17;;;;;;;2.47;1.73;;;-1.50;56.90;;;;;;5006242;28;20169;-58
2023/02/26 06:09:43;;;;;;;3.30;2.23;;;-1.60;56.30;;;;;;5005684;28;20600;-57
2023/02/26 06:12:10;;;;;;;8.33;2.30;;;-1.60;56.20;;;;;;4999488;28;20225;-58
2023/02/26 06:14:35;;;;;;;2.43;2.00;;;-1.70;56.00;;;;;;4989395;28;20607;-58
2023/02/26 06:17:03;;;;;;;2.63;2.17;;;-1.70;55.80;;;;;;5005769;28;20193;-56
2023/02/26 06:19:29;;;;;;;9.07;2.43;;;-1.80;55.90;;;;;;5007734;28;20258;-57
2023/02/26 06:21:54;;;;;;;3.20;2.00;;;-1.80;55.80;;;;;;5006452;28;20939;-58
2023/02/26 06:24:20;;;;;;;5.17;2.10;;;-1.90;55.70;;;;;;5003571;28;20188;-59
2023/02/26 06:26:45;;;;;;;6.10;1.90;;;-1.90;55.80;;;;;;5004670;28;20190;-58
2023/02/26 06:29:11;;;;;;;3.33;2.17;;;-1.90;55.80;;;;;;5003469;28;20269;-58
2023/02/26 06:31:37;;;;;;;5.50;2.23;;;-2.00;55.90;;;;;;5002294;28;20967;-58
2023/02/26 06:34:02;;;;;;;2.60;2.00;;;-2.10;55.90;;;;;;5000354;28;20705;-57
2023/02/26 06:36:28;;;;;;;2.40;2.17;;;-2.10;56.00;;;;;;5006598;28;20183;-57
2023/02/26 06:38:53;;;;;;;6.20;1.97;;;-2.10;56.10;;;;;;5006392;28;20178;-57
2023/02/26 06:41:19;;;;;;;1.90;1.80;;;-2.20;56.00;;;;;;5003734;28;20170;-58
2023/02/26 06:43:45;;;;;;;2.67;2.33;;;-2.20;56.00;;;;;;5001061;28;20197;-57
2023/02/26 06:46:10;;;;;;;2.67;2.47;;;-2.20;56.00;;;;;;5006337;28;20201;-58
2023/02/26 06:48:36;;;;;;;7.10;2.70;;;-2.30;56.00;;;;;;5008472;28;20177;-58
2023/02/26 06:51:01;;;;;;;2.43;2.10;;;-2.30;56.10;;;;;;5003717;28;20180;-58
2023/02/26 06:53:27;;;;;;;5.07;2.07;;;-2.30;56.10;;;;;;5004061;28;20198;-58
2023/02/26 06:55:53;;;;;;;2.70;2.50;;;-2.40;56.00;;;;;;5005959;28;20250;-56
2023/02/26 06:58:19;;;;;;;2.10;1.77;;;-2.40;55.80;;;;;;5007417;28;20878;-58
2023/02/26 07:00:45;;;;;;;1.97;1.87;;;-2.40;55.20;;;;;;5004388;28;20205;-58
2023/02/26 07:03:13;;;;;;;4.20;1.80;;;-2.40;55.00;;;;;;5000015;28;20530;-57
2023/02/26 07:05:39;;;;;;;7.17;2.07;;;-2.40;54.70;;;;;;4998417;28;20244;-59
2023/02/26 07:08:05;;;;;;;3.40;2.30;;;-2.40;54.90;;;;;;5003158;28;20946;-57
2023/02/26 07:10:35;;;;;;;1.70;1.60;;;-2.30;56.80;;;;;;4999018;28;20460;-58
2023/02/26 07:13:01;;;;;;;4.43;1.80;;;-2.20;56.50;;;;;;5007020;28;20492;-58
2023/02/26 07:15:27;;;;;;;1.80;1.70;;;-2.10;56.00;;;;;;5009123;28;20468;-58
2023/02/26 07:17:52;;;;;;;2.30;1.87;;;-2.00;55.40;;;;;;5003311;28;20189;-60
2023/02/26 07:20:18;;;;;;;1.73;1.57;;;-2.00;55.30;;;;;;5001657;28;20542;-60
2023/02/26 07:22:44;;;;;;;4.10;1.73;;;-1.90;55.10;;;;;;5008564;28;20206;-59
2023/02/26 07:25:11;;;;;;;2.00;1.80;;;-1.80;54.90;;;;;;5006783;28;20961;-60
2023/02/26 07:27:36;;;;;;;1.70;1.60;;;-1.80;54.80;;;;;;5005370;28;20802;-59
2023/02/26 07:30:05;;;;;;;3.30;2.30;;;-1.80;54.50;;;;;;5010148;28;20524;-60
2023/02/26 07:32:31;;;;;;;1.90;1.70;;;-1.90;54.40;;;;;;5007621;28;20193;-59
2023/02/26 07:34:57;;;;;;;2.03;1.93;;;-1.90;54.40;;;;;;5015290;28;20454;-60
2023/02/26 07:37:23;;;;;;;2.37;2.10;;;-1.90;54.30;;;;;;5003692;28;20432;-60
2023/02/26 07:39:49;;;;;;;1.60;1.50;;;-1.80;54.50;;;;;;5005377;28;20212;-59
2023/02/26 07:42:14;;;;;;;2.43;1.90;;;-1.80;54.30;;;;;;5006621;28;20947;-60
2023/02/26 07:44:40;;;;;;;6.33;2.30;;;-1.80;53.70;;;;;;5003782;28;20687;-60
2023/02/26 07:47:06;;;;;;;1.77;1.67;;;-1.80;53.60;;;;;;5005772;28;20775;-60
2023/02/26 07:49:32;;;;;;;3.63;1.70;;;-1.80;53.70;;;;;;5003796;28;20665;-60
2023/02/26 07:51:58;;;;;;;2.50;1.80;;;-1.70;53.80;;;;;;5009204;28;20513;-61
2023/02/26 07:54:24;;;;;;;2.67;1.70;;;-1.60;53.60;;;;;;5008602;28;20992;-56
2023/02/26 07:56:50;;;;;;;11.73;1.60;;;-1.50;53.10;;;;;;5010256;28;20180;-57
2023/02/26 07:59:16;;;;;;;1.67;1.57;;;-1.40;53.00;;;;;;4994509;28;20303;-61
2023/02/26 08:01:41;;;;;;;3.40;1.80;;;-1.40;52.40;;;;;;5003764;28;20246;-59
2023/02/26 08:04:07;;;;;;;2.83;1.70;;;-1.40;52.30;;;;;;4994739;28;20458;-56
2023/02/26 08:06:34;;;;;;;4.03;1.80;;;-1.30;52.10;;;;;;4997250;28;20178;-56
2023/02/26 08:09:00;;;;;;;2.10;1.90;;;-1.30;52.10;;;;;;4998358;28;20682;-56
2023/02/26 08:11:26;;;;;;;2.90;1.70;;;-1.30;52.10;;;;;;5004791;28;20812;-56
2023/02/26 08:13:52;;;;;;;1.90;1.80;;;-1.20;52.30;;;;;;5003504;28;20480;-56
2023/02/26 08:16:18;;;;;;;4.97;1.60;;;-1.20;52.10;;;;;;5008068;28;20424;-56
2023/02/26 08:18:44;;;;;;;1.60;1.47;;;-1.10;51.90;;;;;;5001084;28;20803;-56
2023/02/26 08:21:10;;;;;;;2.17;1.50;;;-1.00;51.50;;;;;;4997217;28;20478;-56
2023/02/26 08:23:36;;;;;;;3.13;1.80;;;-1.00;51.30;;;;;;4998809;28;20210;-57
2023/02/26 08:26:04;;;;;;;2.13;1.70;;;-0.90;51.10;;;;;;5002974;28;20433;-55
2023/02/26 08:28:29;;;;;;;6.63;1.57;;;-0.90;51.30;;;;;;5007597;28;20533;-52
2023/02/26 08:30:55;;;;;;;4.20;1.77;;;-0.80;51.70;;;;;;5004562;28;20913;-52
2023/02/26 08:33:21;;;;;;;7.10;2.60;;;-0.70;51.70;;;;;;5003540;28;20202;-52
2023/02/26 08:35:47;;;;;;;2.20;1.60;;;-0.50;51.90;;;;;;5009172;28;20285;-51
2023/02/26 08:38:13;;;;;;;1.90;1.80;;;-0.30;51.90;;;;;;5004288;28;20179;-57
2023/02/26 08:40:39;;;;;;;5.03;1.50;;;-0.20;51.20;;;;;;4994500;28;20479;-56
2023/02/26 08:43:05;;;;;;;2.90;1.93;;;-0.20;51.00;;;;;;5002223;28;20249;-56
2023/02/26 08:45:30;;;;;;;2.13;1.93;;;-0.30;51.00;;;;;;5005394;28;20465;-56
2023/02/26 08:47:56;;;;;;;7.00;2.20;;;-0.30;50.90;;;;;;5000354;28;20782;-57
2023/02/26 08:50:21;;;;;;;3.53;1.87;;;-0.40;50.00;;;;;;4992401;28;20186;-56
2023/02/26 08:52:47;;;;;;;3.67;2.70;;;-0.50;49.30;;;;;;4997271;28;20764;-58
2023/02/26 08:55:13;;;;;;;2.43;1.83;;;-0.60;49.60;;;;;;5000094;28;20183;-56
2023/02/26 08:57:38;;;;;;;5.60;2.27;;;-0.70;49.60;;;;;;5001314;28;21841;-55
2023/02/26 09:00:09;;;;;;;1.67;1.57;;;-0.70;49.70;;;;;;4998866;28;20208;-60
2023/02/26 09:02:35;;;;;;;2.93;1.80;;;-0.80;49.80;;;;;;5010030;28;20179;-59
2023/02/26 09:05:01;;;;;;;2.20;1.70;;;-0.80;50.40;;;;;;5004529;28;20467;-60
2023/02/26 09:07:27;;;;;;;3.33;1.83;;;-0.90;50.10;;;;;;5003334;28;20926;-59
2023/02/26 09:09:52;;;;;;;3.77;2.00;;;-0.90;50.70;;;;;;5009379;28;20817;-60
2023/02/26 09:12:18;;;;;;;1.90;1.80;;;-0.80;50.60;;;;;;5000830;28;20194;-59
2023/02/26 09:14:44;;;;;;;1.70;1.60;;;-0.80;49.90;;;;;;5009350;28;20239;-59
2023/02/26 09:17:09;;;;;;;1.70;1.60;;;-0.70;49.60;;;;;;5009878;28;20182;-59
2023/02/26 09:19:35;;;;;;;2.83;2.30;;;-0.70;50.10;;;;;;5001663;28;20763;-59
2023/02/26 09:22:00;;;;;;;1.97;1.37;;;-0.60;49.80;;;;;;5002407;28;20186;-59
2023/02/26 09:24:26;;;;;;;3.47;1.60;;;-0.50;49.30;;;;;;5002671;28;20243;-59
2023/02/26 09:26:52;;;;;;;3.40;1.80;;;-0.40;48.90;;;;;;5005506;28;20206;-59
2023/02/26 09:29:17;;;;;;;2.20;1.40;;;-0.30;48.40;;;;;;5010483;28;20181;-59
2023/02/26 09:31:43;;;;;;;2.03;1.80;;;-0.30;47.80;;;;;;5005160;28;20190;-59
2023/02/26 09:34:09;;;;;;;1.87;1.70;;;-0.30;47.70;;;;;;5008463;28;20252;-59
2023/02/26 09:36:36;;;;;;;5.27;1.70;;;-0.30;48.20;;;;;;5009516;28;20190;-59
2023/02/26 09:39:02;;;;;;;1.63;1.50;;;-0.30;48.60;;;;;;5016915;28;20715;-60
2023/02/26 09:41:35;;;;;;;5.40;2.00;;;-0.30;48.60;;;;;;5004354;28;20450;-60
2023/02/26 09:44:20;;;;;;;2.00;1.53;;;-0.40;47.90;;;;;;5001544;28;20198;-59
2023/02/26 09:47:27;;;;;;;1.67;1.47;;;-0.40;48.10;;;;;;5008853;28;20491;-60
2023/02/26 09:50:06;;;;;;;3.00;1.73;;;-0.50;47.60;;;;;;5001411;28;20445;-59
2023/02/26 09:52:47;;;;;;;1.93;1.83;;;-0.50;47.30;;;;;;5005738;28;20444;-60
2023/02/26 09:55:26;;;;;;;1.93;1.60;;;-0.60;47.70;;;;;;5007906;28;20556;-60
2023/02/26 09:57:58;;;;;;;1.70;1.60;;;-0.70;48.10;;;;;;5003316;28;20479;-59
2023/02/26 10:00:30;;;;;;;1.47;1.37;;;-0.80;49.10;;;;;;5008889;28;21095;-59
2023/02/26 10:03:22;;;;;;;3.40;2.10;;;-0.80;49.90;;;;;;5009814;28;20486;-58
2023/02/26 10:06:21;;;;;;;2.03;1.70;;;-0.80;50.10;;;;;;5003719;28;20546;-59
2023/02/26 10:08:47;;;;;;;9.37;1.50;;;-0.70;50.10;;;;;;5007378;28;20433;-60
2023/02/26 10:11:35;;;;;;;2.30;1.67;;;-0.70;50.20;;;;;;4998188;28;20486;-59
2023/02/26 10:14:09;;;;;;;3.50;1.73;;;-0.60;50.60;;;;;;5004427;28;20212;-59
2023/02/26 10:16:38;;;;;;;2.53;1.90;;;-0.50;51.00;;;;;;5014732;28;20413;-59
2023/02/26 10:19:09;;;;;;;2.27;2.07;;;-0.40;52.70;;;;;;5008159;28;20438;-60
2023/02/26 10:21:42;;;;;;;4.70;2.30;;;-0.30;53.90;;;;;;5006104;28;20440;-59
2023/02/26 10:24:18;;;;;;;2.60;1.90;;;-0.30;54.20;;;;;;5007713;28;20448;-59
2023/02/26 10:26:55;;;;;;;3.20;1.87;;;-0.20;54.30;;;;;;5001831;28;20413;-60
2023/02/26 10:29:27;;;;;;;5.07;2.00;;;-0.10;53.70;;;;;;5005480;28;20457;-60
2023/02/26 10:32:10;;;;;;;2.10;1.97;;;0.00;53.10;;;;;;5005116;28;20528;-59
2023/02/26 10:34:59;;;;;;;1.90;1.80;;;0.10;51.60;;;;;;5005873;28;20541;-60
2023/02/26 10:37:47;;;;;;;2.20;1.83;;;0.20;51.30;;;;;;5005593;28;20441;-59
2023/02/26 10:40:16;;;;;;;3.40;1.80;;;0.20;50.90;;;;;;5000526;28;20981;-59
2023/02/26 10:42:50;;;;;;;2.50;2.00;;;0.30;50.30;;;;;;5003370;28;20440;-59
2023/02/26 10:45:53;;;;;;;2.53;2.30;;;0.30;50.00;;;;;;5009616;28;20769;-60
2023/02/26 10:48:34;;;;;;;1.93;1.67;;;0.30;49.90;;;;;;4999556;28;20420;-59
2023/02/26 10:51:08;;;;;;;1.93;1.83;;;0.30;49.20;;;;;;5005928;28;20525;-59
2023/02/26 10:53:34;;;;;;;2.00;1.90;;;0.30;48.80;;;;;;5008070;28;20449;-61
2023/02/26 10:56:11;;;;;;;1.93;1.70;;;0.30;48.70;;;;;;5006407;28;20433;-59
2023/02/26 10:58:37;;;;;;;2.13;1.87;;;0.50;49.20;;;;;;5004441;28;20442;-59
2023/02/26 11:01:12;;;;;;;2.10;2.00;;;0.70;49.50;;;;;;5006800;28;20466;-59
2023/02/26 11:03:44;;;;;;;4.03;2.10;;;0.90;49.20;;;;;;5008296;28;20233;-59
2023/02/26 11:06:27;;;;;;;1.83;1.73;;;1.10;48.60;;;;;;5003568;28;21005;-59
2023/02/26 11:08:55;;;;;;;2.00;1.80;;;1.10;47.90;;;;;;5009697;28;20422;-59
2023/02/26 11:11:45;;;;;;;2.20;2.00;;;0.90;47.70;;;;;;5000578;28;20437;-59
2023/02/26 11:14:11;;;;;;;1.70;1.60;;;0.80;48.00;;;;;;5007714;28;20470;-60
2023/02/26 11:16:48;;;;;;;1.83;1.73;;;0.60;48.30;;;;;;5009441;28;20946;-60
2023/02/26 11:19:16;;;;;;;2.20;1.83;;;0.40;48.50;;;;;;5008614;28;20441;-59
2023/02/26 11:21:45;;;;;;;9.10;1.50;;;0.30;49.00;;;;;;5004595;28;20937;-59
2023/02/26 11:24:26;;;;;;;2.20;2.00;;;0.20;49.40;;;;;;5002294;28;21527;-59
2023/02/26 11:26:57;;;;;;;2.80;1.97;;;0.10;50.30;;;;;;5005533;28;21075;-60
2023/02/26 11:29:25;;;;;;;8.33;2.37;;;0.10;50.20;;;;;;5006843;28;20892;-59
2023/02/26 11:31:56;;;;;;;2.43;2.20;;;0.00;50.20;;;;;;5005883;28;20427;-59
2023/02/26 11:34:24;;;;;;;5.53;2.50;;;-0.10;50.60;;;;;;5007936;28;20479;-59
2023/02/26 11:36:54;;;;;;;2.40;2.20;;;-0.10;50.80;;;;;;5008098;28;20433;-60
2023/02/26 11:39:21;;;;;;;4.23;2.53;;;-0.10;51.10;;;;;;5000845;28;20476;-59
2023/02/26 11:41:49;;;;;;;1.80;1.70;;;0.00;51.50;;;;;;5003737;28;20469;-59
2023/02/26 11:44:21;;;;;;;2.30;2.20;;;0.00;51.50;;;;;;5007790;28;20554;-59
2023/02/26 11:46:52;;;;;;;3.17;2.20;;;0.00;50.90;;;;;;5009264;28;20409;-59
2023/02/26 11:49:22;;;;;;;2.00;1.90;;;0.00;50.80;;;;;;5009482;28;20426;-59
2023/02/26 11:52:20;;;;;;;1.90;1.80;;;0.00;51.00;;;;;;5008296;28;20440;-62
2023/02/26 11:54:47;;;;;;;3.00;2.00;;;0.00;50.90;;;;;;5005801;28;20464;-59
2023/02/26 11:57:25;;;;;;;2.33;2.07;;;0.00;50.70;;;;;;5001521;28;20484;-60
2023/02/26 11:59:53;;;;;;;3.80;2.00;;;0.00;50.60;;;;;;5025463;28;20457;-59
2023/02/26 12:02:22;;;;;;;4.43;1.87;;;0.00;51.00;;;;;;5004393;28;20464;-60
2023/02/26 12:04:51;;;;;;;2.83;1.60;;;0.00;51.40;;;;;;5005520;28;20453;-61
2023/02/26 12:07:18;;;;;;;1.77;1.67;;;-0.10;51.70;;;;;;5011503;28;20439;-59
2023/02/26 12:09:46;;;;;;;1.80;1.70;;;-0.10;52.00;;;;;;5013821;28;20417;-59
2023/02/26 12:12:27;;;;;;;3.23;1.87;;;-0.10;52.50;;;;;;5007731;28;20445;-59
2023/02/26 12:15:11;;;;;;;2.97;1.70;;;0.00;53.50;;;;;;5006105;28;20453;-59
2023/02/26 12:17:54;;;;;;;2.00;1.80;;;0.00;54.10;;;;;;5013174;28;20425;-59
2023/02/26 12:20:27;;;;;;;2.80;1.67;;;0.10;54.10;;;;;;5001660;28;20484;-59
2023/02/26 12:22:58;;;;;;;3.63;1.97;;;0.10;54.50;;;;;;5011747;28;20401;-59
2023/02/26 12:25:42;;;;;;;2.10;1.90;;;0.20;56.10;;;;;;5008426;28;20438;-60
2023/02/26 12:28:17;;;;;;;2.40;2.13;;;0.30;57.10;;;;;;4991570;28;20437;-62
2023/02/26 12:31:00;;;;;;;1.83;1.73;;;0.30;57.70;;;;;;5005156;28;20456;-55
2023/02/26 12:33:49;;;;;;;2.23;1.83;;;0.20;58.50;;;;;;4999306;28;20457;-57
2023/02/26 12:36:20;;;;;;;2.47;1.80;;;0.10;59.40;;;;;;4989294;28;20437;-54
2023/02/26 12:39:16;;;;;;;3.10;2.13;;;-0.10;61.00;;;;;;4995628;28;20491;-53
2023/02/26 12:42:05;;;;;;;2.40;2.20;;;-0.30;63.50;;;;;;4997753;28;20434;-61
2023/02/26 12:45:00;;;;;;;2.10;2.00;;;-0.50;67.80;;;;;;4989721;28;20463;-59
2023/02/26 12:48:03;;;;;;;2.30;2.10;;;-0.60;75.30;;;;;;4998469;28;20457;-60
2023/02/26 12:50:52;;;;;;;2.20;2.00;;;-0.60;82.50;;;;;;4991125;28;20435;-60
2023/02/26 12:53:42;;;;;;;3.03;2.63;;;-0.60;90.10;;;;;;5005866;28;20441;-60
2023/02/26 12:56:26;;;;;;;3.10;2.77;;;-0.50;90.90;;;;;;4986096;28;20441;-60
2023/02/26 12:59:04;;;;;;;2.47;2.27;;;-0.40;88.40;;;;;;4991190;28;21402;-59
2023/02/26 13:01:53;;;;;;;9.47;4.57;;;-0.40;87.40;;;;;;4997629;28;20469;-60
2023/02/26 13:04:48;;;;;;;2.43;2.23;;;0.00;95.40;;;;;;4998022;28;20542;-60
2023/02/26 13:07:19;;;;;;;3.23;2.70;;;0.90;88.40;;;;;;4997547;28;20441;-60
2023/02/26 13:09:58;;;;;;;4.00;2.93;;;1.50;77.70;;;;;;4989888;28;20438;-61
2023/02/26 13:12:29;;;;;;;2.60;2.40;;;2.00;70.60;;;;;;4991621;28;21227;-61